sensor_id;sensor_type;location;lat;lon;timestamp;temperature;humidity
5779;DHT22;2916;49.798;10.022;2023-09-30T00:00:29;17.60;99.90
5779;DHT22;2916;49.798;10.022;2023-09-30T00:02:58;17.50;99.90
5779;DHT22;2916;49.798;10.022;2023-09-30T00:05:28;17.30;99.90
5779;DHT22;2916;49.798;10.022;2023-09-30T00:07:55;17.10;99.90
5779;DHT22;2916;49.798;10.022;2023-09-30T00:10:22;17.00;99.90
5779;DHT22;2916;49.798;10.022;2023-09-30T00:12:49;16.90;99.90
5779;DHT22;2916;49.798;10.022;2023-09-30T00:15:16;16.90;99.90
5779;DHT22;2916;49.798;10.022;2023-09-30T00:17:43;16.80;99.90
5779;DHT22;2916;49.798;10.022;2023-09-30T00:20:11;16.80;99.90
5779;DHT22;2916;49.798;10.022;2023-09-30T00:22:41;16.70;99.90
5779;DHT22;2916;49.798;10.022;2023-09-30T00:25:09;16.70;99.90
5779;DHT22;2916;49.798;10.022;2023-09-30T00:27:36;16.70;99.90
5779;DHT22;2916;49.798;10.022;2023-09-30T00:30:04;16.60;99.90
5779;DHT22;2916;49.798;10.022;2023-09-30T00:32:33;16.60;99.90
5779;DHT22;2916;49.798;10.022;2023-09-30T00:35:01;16.60;99.90
5779;DHT22;2916;49.798;10.022;2023-09-30T00:37:28;16.50;99.90
5779;DHT22;2916;49.798;10.022;2023-09-30T00:39:57;16.50;99.90
5779;DHT22;2916;49.798;10.022;2023-09-30T00:42:24;16.50;99.90
5779;DHT22;2916;49.798;10.022;2023-09-30T00:44:52;16.40;99.90
5779;DHT22;2916;49.798;10.022;2023-09-30T00:47:19;16.40;99.90
5779;DHT22;2916;49.798;10.022;2023-09-30T00:49:46;16.40;99.90
5779;DHT22;2916;49.798;10.022;2023-09-30T00:52:14;16.30;99.90
5779;DHT22;2916;49.798;10.022;2023-09-30T00:54:41;16.30;99.90
5779;DHT22;2916;49.798;10.022;2023-09-30T00:57:10;16.30;99.90
5779;DHT22;2916;49.798;10.022;2023-09-30T00:59:39;16.20;99.90
5779;DHT22;2916;49.798;10.022;2023-09-30T01:02:07;16.20;99.90
5779;DHT22;2916;49.798;10.022;2023-09-30T01:04:35;16.20;99.90
5779;DHT22;2916;49.798;10.022;2023-09-30T01:07:03;16.20;99.90
5779;DHT22;2916;49.798;10.022;2023-09-30T01:09:30;16.20;99.90
5779;DHT22;2916;49.798;10.022;2023-09-30T01:11:58;16.10;99.90
5779;DHT22;2916;49.798;10.022;2023-09-30T01:14:28;16.10;99.90
5779;DHT22;2916;49.798;10.022;2023-09-30T01:16:56;16.10;99.90
5779;DHT22;2916;49.798;10.022;2023-09-30T01:19:25;16.10;99.90
5779;DHT22;2916;49.798;10.022;2023-09-30T01:21:54;16.00;99.90
5779;DHT22;2916;49.798;10.022;2023-09-30T01:24:24;16.00;99.90
5779;DHT22;2916;49.798;10.022;2023-09-30T01:26:51;15.90;99.90
5779;DHT22;2916;49.798;10.022;2023-09-30T01:29:18;15.90;99.90
5779;DHT22;2916;49.798;10.022;2023-09-30T01:31:45;16.00;99.90
5779;DHT22;2916;49.798;10.022;2023-09-30T01:34:13;15.90;99.90
5779;DHT22;2916;49.798;10.022;2023-09-30T01:36:41;15.90;99.90
5779;DHT22;2916;49.798;10.022;2023-09-30T01:39:10;15.90;99.90
5779;DHT22;2916;49.798;10.022;2023-09-30T01:41:39;15.90;99.90
5779;DHT22;2916;49.798;10.022;2023-09-30T01:44:07;15.90;99.90
5779;DHT22;2916;49.798;10.022;2023-09-30T01:46:35;15.90;99.90
5779;DHT22;2916;49.798;10.022;2023-09-30T01:49:03;15.90;99.90
5779;DHT22;2916;49.798;10.022;2023-09-30T01:51:30;15.80;99.90
5779;DHT22;2916;49.798;10.022;2023-09-30T01:53:57;15.80;99.90
5779;DHT22;2916;49.798;10.022;2023-09-30T01:56:26;15.70;99.90
5779;DHT22;2916;49.798;10.022;2023-09-30T01:58:53;15.80;99.90
5779;DHT22;2916;49.798;10.022;2023-09-30T02:01:21;15.70;99.90
5779;DHT22;2916;49.798;10.022;2023-09-30T02:03:48;15.70;99.90
5779;DHT22;2916;49.798;10.022;2023-09-30T02:06:15;15.70;99.90
5779;DHT22;2916;49.798;10.022;2023-09-30T02:08:42;15.60;99.90
5779;DHT22;2916;49.798;10.022;2023-09-30T02:11:10;15.60;99.90
5779;DHT22;2916;49.798;10.022;2023-09-30T02:13:40;15.60;99.90
5779;DHT22;2916;49.798;10.022;2023-09-30T02:16:11;15.60;99.90
5779;DHT22;2916;49.798;10.022;2023-09-30T02:18:39;15.50;99.90
5779;DHT22;2916;49.798;10.022;2023-09-30T02:21:07;15.50;97.50
5779;DHT22;2916;49.798;10.022;2023-09-30T02:23:35;15.50;96.40
5779;DHT22;2916;49.798;10.022;2023-09-30T02:26:02;15.50;95.20
5779;DHT22;2916;49.798;10.022;2023-09-30T02:28:30;15.50;94.40
5779;DHT22;2916;49.798;10.022;2023-09-30T02:30:59;15.50;94.70
5779;DHT22;2916;49.798;10.022;2023-09-30T02:33:27;15.50;94.20
5779;DHT22;2916;49.798;10.022;2023-09-30T02:35:54;15.40;92.90
5779;DHT22;2916;49.798;10.022;2023-09-30T02:38:21;15.40;91.20
5779;DHT22;2916;49.798;10.022;2023-09-30T02:40:48;15.50;92.90
5779;DHT22;2916;49.798;10.022;2023-09-30T02:43:17;15.50;92.60
5779;DHT22;2916;49.798;10.022;2023-09-30T02:45:44;15.40;91.70
5779;DHT22;2916;49.798;10.022;2023-09-30T02:48:13;15.40;92.20
5779;DHT22;2916;49.798;10.022;2023-09-30T02:50:42;15.40;90.70
5779;DHT22;2916;49.798;10.022;2023-09-30T02:53:11;15.40;91.50
5779;DHT22;2916;49.798;10.022;2023-09-30T02:55:39;15.40;91.80
5779;DHT22;2916;49.798;10.022;2023-09-30T02:58:07;15.40;92.10
5779;DHT22;2916;49.798;10.022;2023-09-30T03:00:34;15.30;92.20
5779;DHT22;2916;49.798;10.022;2023-09-30T03:03:02;15.30;91.90
5779;DHT22;2916;49.798;10.022;2023-09-30T03:05:31;15.30;91.80
5779;DHT22;2916;49.798;10.022;2023-09-30T03:07:59;15.30;93.40
5779;DHT22;2916;49.798;10.022;2023-09-30T03:10:26;15.30;91.90
5779;DHT22;2916;49.798;10.022;2023-09-30T03:12:54;15.20;91.30
5779;DHT22;2916;49.798;10.022;2023-09-30T03:15:22;15.30;91.60
5779;DHT22;2916;49.798;10.022;2023-09-30T03:17:50;15.30;93.60
5779;DHT22;2916;49.798;10.022;2023-09-30T03:20:17;15.20;94.20
5779;DHT22;2916;49.798;10.022;2023-09-30T03:22:47;15.20;94.00
5779;DHT22;2916;49.798;10.022;2023-09-30T03:25:15;15.20;93.90
5779;DHT22;2916;49.798;10.022;2023-09-30T03:27:44;15.10;93.50
5779;DHT22;2916;49.798;10.022;2023-09-30T03:30:13;15.10;94.10
5779;DHT22;2916;49.798;10.022;2023-09-30T03:32:41;15.10;94.60
5779;DHT22;2916;49.798;10.022;2023-09-30T03:35:09;15.10;94.20
5779;DHT22;2916;49.798;10.022;2023-09-30T03:37:40;15.10;94.40
5779;DHT22;2916;49.798;10.022;2023-09-30T03:40:10;15.00;94.90
5779;DHT22;2916;49.798;10.022;2023-09-30T03:42:40;15.00;94.40
5779;DHT22;2916;49.798;10.022;2023-09-30T03:45:09;15.10;94.90
5779;DHT22;2916;49.798;10.022;2023-09-30T03:47:39;15.00;95.40
5779;DHT22;2916;49.798;10.022;2023-09-30T03:50:07;15.10;94.90
5779;DHT22;2916;49.798;10.022;2023-09-30T03:52:39;15.00;94.00
5779;DHT22;2916;49.798;10.022;2023-09-30T03:55:10;15.00;93.40
5779;DHT22;2916;49.798;10.022;2023-09-30T03:57:39;15.00;93.60
5779;DHT22;2916;49.798;10.022;2023-09-30T04:00:07;15.00;94.00
5779;DHT22;2916;49.798;10.022;2023-09-30T04:02:37;14.90;94.20
5779;DHT22;2916;49.798;10.022;2023-09-30T04:05:04;14.90;95.10
5779;DHT22;2916;49.798;10.022;2023-09-30T04:07:32;14.90;97.20
5779;DHT22;2916;49.798;10.022;2023-09-30T04:10:02;14.90;98.30
5779;DHT22;2916;49.798;10.022;2023-09-30T04:12:31;14.90;99.90
5779;DHT22;2916;49.798;10.022;2023-09-30T04:14:59;14.90;99.90
5779;DHT22;2916;49.798;10.022;2023-09-30T04:17:26;14.80;99.90
5779;DHT22;2916;49.798;10.022;2023-09-30T04:19:53;14.80;99.90
5779;DHT22;2916;49.798;10.022;2023-09-30T04:22:20;14.90;99.90
5779;DHT22;2916;49.798;10.022;2023-09-30T04:24:47;14.90;99.90
5779;DHT22;2916;49.798;10.022;2023-09-30T04:27:16;14.90;99.90
5779;DHT22;2916;49.798;10.022;2023-09-30T04:29:45;14.90;99.90
5779;DHT22;2916;49.798;10.022;2023-09-30T04:32:12;14.80;99.90
5779;DHT22;2916;49.798;10.022;2023-09-30T04:34:39;14.80;99.90
5779;DHT22;2916;49.798;10.022;2023-09-30T04:37:06;14.80;99.30
5779;DHT22;2916;49.798;10.022;2023-09-30T04:39:34;14.80;98.50
5779;DHT22;2916;49.798;10.022;2023-09-30T04:42:02;14.70;98.20
5779;DHT22;2916;49.798;10.022;2023-09-30T04:44:30;14.80;97.80
5779;DHT22;2916;49.798;10.022;2023-09-30T04:46:59;14.80;96.60
5779;DHT22;2916;49.798;10.022;2023-09-30T04:49:26;14.80;96.00
5779;DHT22;2916;49.798;10.022;2023-09-30T04:51:53;14.70;95.80
5779;DHT22;2916;49.798;10.022;2023-09-30T04:54:20;14.70;96.60
5779;DHT22;2916;49.798;10.022;2023-09-30T04:56:47;14.70;96.60
5779;DHT22;2916;49.798;10.022;2023-09-30T04:59:15;14.70;96.50
5779;DHT22;2916;49.798;10.022;2023-09-30T05:01:42;14.70;95.80
5779;DHT22;2916;49.798;10.022;2023-09-30T05:04:11;14.70;95.90
5779;DHT22;2916;49.798;10.022;2023-09-30T05:06:38;14.70;95.70
5779;DHT22;2916;49.798;10.022;2023-09-30T05:09:05;14.60;94.40
5779;DHT22;2916;49.798;10.022;2023-09-30T05:11:33;14.60;94.70
5779;DHT22;2916;49.798;10.022;2023-09-30T05:14:00;14.60;95.10
5779;DHT22;2916;49.798;10.022;2023-09-30T05:16:30;14.50;95.50
5779;DHT22;2916;49.798;10.022;2023-09-30T05:18:58;14.50;95.40
5779;DHT22;2916;49.798;10.022;2023-09-30T05:21:26;14.50;95.10
5779;DHT22;2916;49.798;10.022;2023-09-30T05:23:53;14.50;95.30
5779;DHT22;2916;49.798;10.022;2023-09-30T05:26:22;14.40;97.00
5779;DHT22;2916;49.798;10.022;2023-09-30T05:28:49;14.50;96.60
5779;DHT22;2916;49.798;10.022;2023-09-30T05:31:16;14.40;96.10
5779;DHT22;2916;49.798;10.022;2023-09-30T05:33:43;14.40;96.10
5779;DHT22;2916;49.798;10.022;2023-09-30T05:36:10;14.40;95.70
5779;DHT22;2916;49.798;10.022;2023-09-30T05:38:40;14.30;95.20
5779;DHT22;2916;49.798;10.022;2023-09-30T05:41:07;14.40;95.30
5779;DHT22;2916;49.798;10.022;2023-09-30T05:43:34;14.30;95.00
5779;DHT22;2916;49.798;10.022;2023-09-30T05:46:01;14.40;96.60
5779;DHT22;2916;49.798;10.022;2023-09-30T05:48:29;14.40;96.20
5779;DHT22;2916;49.798;10.022;2023-09-30T05:50:57;14.30;97.00
5779;DHT22;2916;49.798;10.022;2023-09-30T05:53:24;14.40;97.00
5779;DHT22;2916;49.798;10.022;2023-09-30T05:55:54;14.40;97.40
5779;DHT22;2916;49.798;10.022;2023-09-30T05:58:22;14.40;96.50
5779;DHT22;2916;49.798;10.022;2023-09-30T06:00:49;14.50;97.00
5779;DHT22;2916;49.798;10.022;2023-09-30T06:03:16;14.50;96.70
5779;DHT22;2916;49.798;10.022;2023-09-30T06:05:43;14.50;96.50
5779;DHT22;2916;49.798;10.022;2023-09-30T06:08:10;14.60;95.60
5779;DHT22;2916;49.798;10.022;2023-09-30T06:10:39;14.60;95.90
5779;DHT22;2916;49.798;10.022;2023-09-30T06:13:10;14.70;96.00
5779;DHT22;2916;49.798;10.022;2023-09-30T06:15:38;14.70;95.60
5779;DHT22;2916;49.798;10.022;2023-09-30T06:18:08;14.80;95.40
5779;DHT22;2916;49.798;10.022;2023-09-30T06:20:37;14.80;94.80
5779;DHT22;2916;49.798;10.022;2023-09-30T06:23:04;14.80;94.10
5779;DHT22;2916;49.798;10.022;2023-09-30T06:25:31;14.80;94.10
5779;DHT22;2916;49.798;10.022;2023-09-30T06:27:59;14.80;94.00
5779;DHT22;2916;49.798;10.022;2023-09-30T06:30:27;14.80;92.90
5779;DHT22;2916;49.798;10.022;2023-09-30T06:32:56;14.70;91.70
5779;DHT22;2916;49.798;10.022;2023-09-30T06:35:23;14.80;91.30
5779;DHT22;2916;49.798;10.022;2023-09-30T06:37:50;14.80;90.20
5779;DHT22;2916;49.798;10.022;2023-09-30T06:40:17;14.90;90.40
5779;DHT22;2916;49.798;10.022;2023-09-30T06:42:44;15.00;87.60
5779;DHT22;2916;49.798;10.022;2023-09-30T06:45:11;15.00;80.20
5779;DHT22;2916;49.798;10.022;2023-09-30T06:47:40;15.30;80.00
5779;DHT22;2916;49.798;10.022;2023-09-30T06:50:09;15.50;71.40
5779;DHT22;2916;49.798;10.022;2023-09-30T06:52:38;15.70;61.30
5779;DHT22;2916;49.798;10.022;2023-09-30T06:55:07;16.00;51.30
5779;DHT22;2916;49.798;10.022;2023-09-30T06:57:35;16.20;41.80
5779;DHT22;2916;49.798;10.022;2023-09-30T07:00:05;16.60;40.30
5779;DHT22;2916;49.798;10.022;2023-09-30T07:02:35;16.70;26.20
5779;DHT22;2916;49.798;10.022;2023-09-30T07:05:05;16.90;20.50
5779;DHT22;2916;49.798;10.022;2023-09-30T07:07:34;17.20;17.80
5779;DHT22;2916;49.798;10.022;2023-09-30T07:10:01;17.30;12.00
5779;DHT22;2916;49.798;10.022;2023-09-30T07:12:29;17.40;9.90
5779;DHT22;2916;49.798;10.022;2023-09-30T07:14:58;17.70;10.40
5779;DHT22;2916;49.798;10.022;2023-09-30T07:17:25;17.60;5.90
5779;DHT22;2916;49.798;10.022;2023-09-30T07:19:52;17.60;6.20
5779;DHT22;2916;49.798;10.022;2023-09-30T07:22:21;17.80;3.40
5779;DHT22;2916;49.798;10.022;2023-09-30T07:24:48;18.00;2.30
5779;DHT22;2916;49.798;10.022;2023-09-30T07:27:15;18.20;1.00
5779;DHT22;2916;49.798;10.022;2023-09-30T07:29:43;18.60;1.00
5779;DHT22;2916;49.798;10.022;2023-09-30T07:32:10;18.90;1.00
5779;DHT22;2916;49.798;10.022;2023-09-30T07:34:37;18.90;1.00
5779;DHT22;2916;49.798;10.022;2023-09-30T07:37:04;19.00;1.00
5779;DHT22;2916;49.798;10.022;2023-09-30T07:39:33;19.30;1.00
5779;DHT22;2916;49.798;10.022;2023-09-30T07:42:01;19.60;1.00
5779;DHT22;2916;49.798;10.022;2023-09-30T07:44:29;19.60;1.00
5779;DHT22;2916;49.798;10.022;2023-09-30T07:46:56;19.00;1.00
5779;DHT22;2916;49.798;10.022;2023-09-30T07:49:24;19.20;1.00
5779;DHT22;2916;49.798;10.022;2023-09-30T07:51:51;19.90;1.00
5779;DHT22;2916;49.798;10.022;2023-09-30T07:54:18;20.30;1.00
5779;DHT22;2916;49.798;10.022;2023-09-30T07:56:46;20.60;1.00
5779;DHT22;2916;49.798;10.022;2023-09-30T07:59:14;20.80;1.00
5779;DHT22;2916;49.798;10.022;2023-09-30T08:01:41;20.70;1.00
5779;DHT22;2916;49.798;10.022;2023-09-30T08:04:08;20.80;1.00
5779;DHT22;2916;49.798;10.022;2023-09-30T08:06:35;20.70;1.00
5779;DHT22;2916;49.798;10.022;2023-09-30T08:09:03;20.70;1.00
5779;DHT22;2916;49.798;10.022;2023-09-30T08:11:35;21.00;1.00
5779;DHT22;2916;49.798;10.022;2023-09-30T08:14:04;21.10;1.00
5779;DHT22;2916;49.798;10.022;2023-09-30T08:16:32;21.10;1.00
5779;DHT22;2916;49.798;10.022;2023-09-30T08:18:59;21.50;1.00
5779;DHT22;2916;49.798;10.022;2023-09-30T08:21:26;21.70;1.00
5779;DHT22;2916;49.798;10.022;2023-09-30T08:23:53;21.80;1.00
5779;DHT22;2916;49.798;10.022;2023-09-30T08:26:20;21.60;1.00
5779;DHT22;2916;49.798;10.022;2023-09-30T08:28:48;21.80;1.00
5779;DHT22;2916;49.798;10.022;2023-09-30T08:31:17;21.80;1.00
5779;DHT22;2916;49.798;10.022;2023-09-30T08:33:44;22.10;1.00
5779;DHT22;2916;49.798;10.022;2023-09-30T08:36:11;22.40;1.00
5779;DHT22;2916;49.798;10.022;2023-09-30T08:38:40;21.60;1.00
5779;DHT22;2916;49.798;10.022;2023-09-30T08:41:08;20.80;1.00
5779;DHT22;2916;49.798;10.022;2023-09-30T08:43:37;21.60;1.00
5779;DHT22;2916;49.798;10.022;2023-09-30T08:46:06;21.60;1.00
5779;DHT22;2916;49.798;10.022;2023-09-30T08:48:34;21.60;1.00
5779;DHT22;2916;49.798;10.022;2023-09-30T08:51:02;21.80;1.00
5779;DHT22;2916;49.798;10.022;2023-09-30T08:53:29;21.80;1.00
5779;DHT22;2916;49.798;10.022;2023-09-30T08:55:57;22.20;1.00
5779;DHT22;2916;49.798;10.022;2023-09-30T08:58:27;22.30;1.00
5779;DHT22;2916;49.798;10.022;2023-09-30T09:00:55;21.70;1.00
5779;DHT22;2916;49.798;10.022;2023-09-30T09:03:23;21.30;1.00
5779;DHT22;2916;49.798;10.022;2023-09-30T09:05:55;21.50;1.00
5779;DHT22;2916;49.798;10.022;2023-09-30T09:08:24;21.10;1.00
5779;DHT22;2916;49.798;10.022;2023-09-30T09:10:56;21.00;1.00
5779;DHT22;2916;49.798;10.022;2023-09-30T09:13:24;21.40;1.00
5779;DHT22;2916;49.798;10.022;2023-09-30T09:16:06;21.00;1.00
5779;DHT22;2916;49.798;10.022;2023-09-30T09:18:34;21.20;1.00
5779;DHT22;2916;49.798;10.022;2023-09-30T09:21:14;21.10;1.00
5779;DHT22;2916;49.798;10.022;2023-09-30T09:23:44;21.20;1.00
5779;DHT22;2916;49.798;10.022;2023-09-30T09:26:22;20.90;1.00
5779;DHT22;2916;49.798;10.022;2023-09-30T09:28:56;20.70;1.00
5779;DHT22;2916;49.798;10.022;2023-09-30T09:31:26;20.80;1.00
5779;DHT22;2916;49.798;10.022;2023-09-30T09:33:54;21.30;1.00
5779;DHT22;2916;49.798;10.022;2023-09-30T09:36:38;21.30;1.00
5779;DHT22;2916;49.798;10.022;2023-09-30T09:39:07;20.70;1.00
5779;DHT22;2916;49.798;10.022;2023-09-30T09:41:49;20.70;1.00
5779;DHT22;2916;49.798;10.022;2023-09-30T09:44:19;21.00;1.00
5779;DHT22;2916;49.798;10.022;2023-09-30T09:46:48;20.90;1.00
5779;DHT22;2916;49.798;10.022;2023-09-30T09:49:17;21.30;1.00
5779;DHT22;2916;49.798;10.022;2023-09-30T09:51:47;21.60;1.00
5779;DHT22;2916;49.798;10.022;2023-09-30T09:54:16;21.60;1.00
5779;DHT22;2916;49.798;10.022;2023-09-30T09:56:44;21.50;1.00
5779;DHT22;2916;49.798;10.022;2023-09-30T09:59:12;21.50;1.00
5779;DHT22;2916;49.798;10.022;2023-09-30T10:01:40;21.90;1.00
5779;DHT22;2916;49.798;10.022;2023-09-30T10:04:07;22.00;1.00
5779;DHT22;2916;49.798;10.022;2023-09-30T10:06:39;21.80;1.00
5779;DHT22;2916;49.798;10.022;2023-09-30T10:09:10;21.50;1.00
5779;DHT22;2916;49.798;10.022;2023-09-30T10:11:40;21.50;1.00
5779;DHT22;2916;49.798;10.022;2023-09-30T10:14:07;21.60;1.00
5779;DHT22;2916;49.798;10.022;2023-09-30T10:16:49;21.70;1.00
5779;DHT22;2916;49.798;10.022;2023-09-30T10:19:19;21.90;1.00
5779;DHT22;2916;49.798;10.022;2023-09-30T10:22:22;21.50;1.00
5779;DHT22;2916;49.798;10.022;2023-09-30T10:24:53;21.60;1.00
5779;DHT22;2916;49.798;10.022;2023-09-30T10:27:36;21.90;1.00
5779;DHT22;2916;49.798;10.022;2023-09-30T10:30:10;21.20;1.00
5779;DHT22;2916;49.798;10.022;2023-09-30T10:33:08;21.20;1.00
5779;DHT22;2916;49.798;10.022;2023-09-30T10:35:43;21.10;1.00
5779;DHT22;2916;49.798;10.022;2023-09-30T10:38:37;20.90;1.00
5779;DHT22;2916;49.798;10.022;2023-09-30T10:41:49;21.10;1.00
5779;DHT22;2916;49.798;10.022;2023-09-30T10:44:33;21.40;1.00
5779;DHT22;2916;49.798;10.022;2023-09-30T10:47:33;21.40;1.00
5779;DHT22;2916;49.798;10.022;2023-09-30T10:50:03;21.20;1.00
5779;DHT22;2916;49.798;10.022;2023-09-30T10:52:50;21.30;1.00
5779;DHT22;2916;49.798;10.022;2023-09-30T10:55:19;21.20;1.00
5779;DHT22;2916;49.798;10.022;2023-09-30T10:57:50;21.00;1.00
5779;DHT22;2916;49.798;10.022;2023-09-30T11:00:18;21.10;1.00
5779;DHT22;2916;49.798;10.022;2023-09-30T11:02:49;21.00;1.00
5779;DHT22;2916;49.798;10.022;2023-09-30T11:05:20;21.00;1.00
5779;DHT22;2916;49.798;10.022;2023-09-30T11:07:48;21.00;1.00
5779;DHT22;2916;49.798;10.022;2023-09-30T11:10:17;21.00;1.00
5779;DHT22;2916;49.798;10.022;2023-09-30T11:12:55;20.90;1.00
5779;DHT22;2916;49.798;10.022;2023-09-30T11:15:22;20.90;1.00
5779;DHT22;2916;49.798;10.022;2023-09-30T11:17:49;21.10;1.00
5779;DHT22;2916;49.798;10.022;2023-09-30T11:20:20;21.20;1.00
5779;DHT22;2916;49.798;10.022;2023-09-30T11:22:47;21.10;1.00
5779;DHT22;2916;49.798;10.022;2023-09-30T11:25:16;21.20;1.00
5779;DHT22;2916;49.798;10.022;2023-09-30T11:27:45;21.10;1.00
5779;DHT22;2916;49.798;10.022;2023-09-30T11:30:13;20.90;1.00
5779;DHT22;2916;49.798;10.022;2023-09-30T11:32:41;21.10;1.00
5779;DHT22;2916;49.798;10.022;2023-09-30T11:35:10;21.10;1.00
5779;DHT22;2916;49.798;10.022;2023-09-30T11:37:51;20.90;1.00
5779;DHT22;2916;49.798;10.022;2023-09-30T11:40:18;21.10;1.00
5779;DHT22;2916;49.798;10.022;2023-09-30T11:43:07;20.30;1.00
5779;DHT22;2916;49.798;10.022;2023-09-30T11:45:36;20.70;1.00
5779;DHT22;2916;49.798;10.022;2023-09-30T11:48:17;20.90;1.00
5779;DHT22;2916;49.798;10.022;2023-09-30T11:50:47;21.10;1.00
5779;DHT22;2916;49.798;10.022;2023-09-30T11:53:17;21.30;1.00
5779;DHT22;2916;49.798;10.022;2023-09-30T11:55:46;20.40;1.00
5779;DHT22;2916;49.798;10.022;2023-09-30T11:58:13;19.60;1.00
5779;DHT22;2916;49.798;10.022;2023-09-30T12:00:44;20.10;1.00
5779;DHT22;2916;49.798;10.022;2023-09-30T12:03:12;20.40;1.00
5779;DHT22;2916;49.798;10.022;2023-09-30T12:05:39;20.60;1.00
5779;DHT22;2916;49.798;10.022;2023-09-30T12:08:06;20.70;1.00
5779;DHT22;2916;49.798;10.022;2023-09-30T12:10:34;20.80;1.00
5779;DHT22;2916;49.798;10.022;2023-09-30T12:13:02;20.90;1.00
5779;DHT22;2916;49.798;10.022;2023-09-30T12:15:29;20.90;1.00
5779;DHT22;2916;49.798;10.022;2023-09-30T12:17:56;20.90;1.00
5779;DHT22;2916;49.798;10.022;2023-09-30T12:20:24;21.00;1.00
5779;DHT22;2916;49.798;10.022;2023-09-30T12:22:51;21.30;1.00
5779;DHT22;2916;49.798;10.022;2023-09-30T12:25:19;21.30;1.00
5779;DHT22;2916;49.798;10.022;2023-09-30T12:27:48;21.40;1.00
5779;DHT22;2916;49.798;10.022;2023-09-30T12:30:17;21.30;1.00
5779;DHT22;2916;49.798;10.022;2023-09-30T12:32:45;21.50;1.00
5779;DHT22;2916;49.798;10.022;2023-09-30T12:35:12;21.40;1.00
5779;DHT22;2916;49.798;10.022;2023-09-30T12:37:40;21.10;1.00
5779;DHT22;2916;49.798;10.022;2023-09-30T12:40:09;21.40;1.00
5779;DHT22;2916;49.798;10.022;2023-09-30T12:42:39;21.50;1.00
5779;DHT22;2916;49.798;10.022;2023-09-30T12:45:09;21.60;1.00
5779;DHT22;2916;49.798;10.022;2023-09-30T12:47:38;21.70;1.00
5779;DHT22;2916;49.798;10.022;2023-09-30T12:50:06;21.80;1.00
5779;DHT22;2916;49.798;10.022;2023-09-30T12:52:36;21.70;1.00
5779;DHT22;2916;49.798;10.022;2023-09-30T12:55:04;21.20;1.00
5779;DHT22;2916;49.798;10.022;2023-09-30T12:57:32;21.60;1.00
5779;DHT22;2916;49.798;10.022;2023-09-30T12:59:59;21.70;1.00
5779;DHT22;2916;49.798;10.022;2023-09-30T13:02:27;21.60;1.00
5779;DHT22;2916;49.798;10.022;2023-09-30T13:04:54;21.50;1.00
5779;DHT22;2916;49.798;10.022;2023-09-30T13:07:21;21.30;1.00
5779;DHT22;2916;49.798;10.022;2023-09-30T13:09:50;21.30;1.00
5779;DHT22;2916;49.798;10.022;2023-09-30T13:12:17;21.50;1.00
5779;DHT22;2916;49.798;10.022;2023-09-30T13:14:44;21.30;1.00
5779;DHT22;2916;49.798;10.022;2023-09-30T13:17:11;21.20;1.00
5779;DHT22;2916;49.798;10.022;2023-09-30T13:19:41;21.20;1.00
5779;DHT22;2916;49.798;10.022;2023-09-30T13:22:08;21.20;1.00
5779;DHT22;2916;49.798;10.022;2023-09-30T13:24:38;21.20;1.00
5779;DHT22;2916;49.798;10.022;2023-09-30T13:27:08;21.30;1.00
5779;DHT22;2916;49.798;10.022;2023-09-30T13:29:35;21.30;1.00
5779;DHT22;2916;49.798;10.022;2023-09-30T13:32:02;21.50;1.00
5779;DHT22;2916;49.798;10.022;2023-09-30T13:34:29;21.50;1.00
5779;DHT22;2916;49.798;10.022;2023-09-30T13:36:58;21.50;1.00
5779;DHT22;2916;49.798;10.022;2023-09-30T13:39:25;21.40;1.00
5779;DHT22;2916;49.798;10.022;2023-09-30T13:41:53;21.30;1.00
5779;DHT22;2916;49.798;10.022;2023-09-30T13:44:20;21.50;1.00
5779;DHT22;2916;49.798;10.022;2023-09-30T13:46:47;21.80;1.00
5779;DHT22;2916;49.798;10.022;2023-09-30T13:49:14;21.50;1.00
5779;DHT22;2916;49.798;10.022;2023-09-30T13:51:43;21.80;1.00
5779;DHT22;2916;49.798;10.022;2023-09-30T13:54:11;21.60;1.00
5779;DHT22;2916;49.798;10.022;2023-09-30T13:56:40;21.50;1.00
5779;DHT22;2916;49.798;10.022;2023-09-30T13:59:07;21.50;1.00
5779;DHT22;2916;49.798;10.022;2023-09-30T14:01:34;21.50;1.00
5779;DHT22;2916;49.798;10.022;2023-09-30T14:04:02;21.50;1.00
5779;DHT22;2916;49.798;10.022;2023-09-30T14:06:30;21.50;1.00
5779;DHT22;2916;49.798;10.022;2023-09-30T14:08:57;21.40;1.00
5779;DHT22;2916;49.798;10.022;2023-09-30T14:11:26;21.40;1.00
5779;DHT22;2916;49.798;10.022;2023-09-30T14:13:53;21.40;1.00
5779;DHT22;2916;49.798;10.022;2023-09-30T14:16:20;21.40;1.00
5779;DHT22;2916;49.798;10.022;2023-09-30T14:18:47;21.50;1.00
5779;DHT22;2916;49.798;10.022;2023-09-30T14:21:15;21.50;1.00
5779;DHT22;2916;49.798;10.022;2023-09-30T14:23:44;21.60;1.00
5779;DHT22;2916;49.798;10.022;2023-09-30T14:26:11;21.60;1.00
5779;DHT22;2916;49.798;10.022;2023-09-30T14:28:39;21.70;1.00
5779;DHT22;2916;49.798;10.022;2023-09-30T14:31:07;21.60;1.00
5779;DHT22;2916;49.798;10.022;2023-09-30T14:33:34;21.60;1.00
5779;DHT22;2916;49.798;10.022;2023-09-30T14:36:02;21.60;1.00
5779;DHT22;2916;49.798;10.022;2023-09-30T14:38:31;21.40;1.00
5779;DHT22;2916;49.798;10.022;2023-09-30T14:40:58;21.40;1.00
5779;DHT22;2916;49.798;10.022;2023-09-30T14:43:25;21.40;1.00
5779;DHT22;2916;49.798;10.022;2023-09-30T14:45:54;21.40;1.00
5779;DHT22;2916;49.798;10.022;2023-09-30T14:48:21;21.40;1.00
5779;DHT22;2916;49.798;10.022;2023-09-30T14:50:49;21.40;1.00
5779;DHT22;2916;49.798;10.022;2023-09-30T14:53:16;21.30;1.00
5779;DHT22;2916;49.798;10.022;2023-09-30T14:55:45;21.50;1.00
5779;DHT22;2916;49.798;10.022;2023-09-30T14:58:12;21.30;1.00
5779;DHT22;2916;49.798;10.022;2023-09-30T15:00:39;21.20;1.00
5779;DHT22;2916;49.798;10.022;2023-09-30T15:03:08;21.10;1.00
5779;DHT22;2916;49.798;10.022;2023-09-30T15:05:36;21.20;1.00
5779;DHT22;2916;49.798;10.022;2023-09-30T15:08:03;21.10;1.00
5779;DHT22;2916;49.798;10.022;2023-09-30T15:10:34;21.10;1.00
5779;DHT22;2916;49.798;10.022;2023-09-30T15:13:02;21.10;1.00
5779;DHT22;2916;49.798;10.022;2023-09-30T15:15:30;21.00;1.00
5779;DHT22;2916;49.798;10.022;2023-09-30T15:17:57;20.80;1.00
5779;DHT22;2916;49.798;10.022;2023-09-30T15:20:27;20.80;1.00
5779;DHT22;2916;49.798;10.022;2023-09-30T15:22:54;20.90;1.00
5779;DHT22;2916;49.798;10.022;2023-09-30T15:25:21;21.00;1.00
5779;DHT22;2916;49.798;10.022;2023-09-30T15:27:48;20.90;1.00
5779;DHT22;2916;49.798;10.022;2023-09-30T15:30:15;20.80;1.00
5779;DHT22;2916;49.798;10.022;2023-09-30T15:32:43;20.80;1.00
5779;DHT22;2916;49.798;10.022;2023-09-30T15:35:10;20.70;1.00
5779;DHT22;2916;49.798;10.022;2023-09-30T15:37:39;20.60;1.00
5779;DHT22;2916;49.798;10.022;2023-09-30T15:40:07;20.60;1.00
5779;DHT22;2916;49.798;10.022;2023-09-30T15:42:34;20.40;1.00
5779;DHT22;2916;49.798;10.022;2023-09-30T15:45:01;20.30;1.00
5779;DHT22;2916;49.798;10.022;2023-09-30T15:47:29;20.20;1.00
5779;DHT22;2916;49.798;10.022;2023-09-30T15:49:56;20.10;1.00
5779;DHT22;2916;49.798;10.022;2023-09-30T15:52:23;20.00;1.00
5779;DHT22;2916;49.798;10.022;2023-09-30T15:54:51;20.00;1.00
5779;DHT22;2916;49.798;10.022;2023-09-30T15:57:19;20.00;1.00
5779;DHT22;2916;49.798;10.022;2023-09-30T15:59:46;20.00;1.00
5779;DHT22;2916;49.798;10.022;2023-09-30T16:02:14;20.00;1.00
5779;DHT22;2916;49.798;10.022;2023-09-30T16:04:41;20.00;1.00